createdAt,value
2023-02-24T00:00:32.169Z,100.00
2023-02-24T00:03:05.672Z,100.00
2023-02-24T00:05:39.086Z,100.00
2023-02-24T00:08:08.081Z,100.00
2023-02-24T00:10:37.499Z,100.00
2023-02-24T00:13:05.234Z,100.00
2023-02-24T00:15:32.843Z,100.00
2023-02-24T00:18:07.009Z,100.00
2023-02-24T00:20:35.335Z,100.00
2023-02-24T00:23:03.686Z,100.00
2023-02-24T00:25:32.663Z,100.00
2023-02-24T00:28:01.570Z,100.00
2023-02-24T00:30:31.375Z,100.00
2023-02-24T00:33:02.250Z,100.00
2023-02-24T00:35:30.381Z,100.00
2023-02-24T00:37:58.017Z,100.00
2023-02-24T00:40:26.569Z,100.00
2023-02-24T00:42:55.634Z,100.00
2023-02-24T00:45:23.210Z,100.00
2023-02-24T00:47:50.815Z,100.00
2023-02-24T00:50:18.877Z,100.00
2023-02-24T00:52:46.468Z,100.00
2023-02-24T00:55:15.314Z,100.00
2023-02-24T00:57:42.939Z,100.00
2023-02-24T01:00:16.543Z,100.00
2023-02-24T01:02:46.012Z,100.00
2023-02-24T01:05:14.974Z,100.00
2023-02-24T01:07:42.783Z,100.00
2023-02-24T01:10:12.597Z,100.00
2023-02-24T01:12:49.259Z,100.00
2023-02-24T01:15:20.298Z,100.00
2023-02-24T01:17:48.155Z,100.00
2023-02-24T01:20:17.870Z,100.00
2023-02-24T01:22:47.415Z,100.00
2023-02-24T01:25:15.520Z,100.00
2023-02-24T01:27:44.740Z,100.00
2023-02-24T01:30:15.759Z,100.00
2023-02-24T01:32:46.614Z,100.00
2023-02-24T01:35:15.008Z,100.00
2023-02-24T01:37:43.008Z,100.00
2023-02-24T01:40:18.463Z,100.00
2023-02-24T01:42:49.297Z,100.00
2023-02-24T01:45:24.858Z,100.00
2023-02-24T01:48:00.641Z,100.00
2023-02-24T01:50:29.632Z,100.00
2023-02-24T01:53:02.268Z,100.00
2023-02-24T01:55:34.068Z,100.00
2023-02-24T01:58:06.398Z,100.00
2023-02-24T02:00:38.331Z,100.00
2023-02-24T02:03:13.006Z,100.00
2023-02-24T02:05:42.946Z,100.00
2023-02-24T02:08:12.856Z,100.00
2023-02-24T02:10:44.261Z,100.00
2023-02-24T02:13:14.085Z,100.00
2023-02-24T02:15:53.688Z,100.00
2023-02-24T02:18:33.226Z,100.00
2023-02-24T02:21:24.827Z,100.00
2023-02-24T02:24:00.674Z,100.00
2023-02-24T02:26:57.814Z,100.00
2023-02-24T02:30:05.794Z,100.00
2023-02-24T02:32:53.104Z,100.00
2023-02-24T02:35:27.529Z,100.00
2023-02-24T02:38:03.182Z,100.00
2023-02-24T02:40:37.946Z,100.00
2023-02-24T02:43:17.187Z,100.00
2023-02-24T02:45:50.887Z,100.00
2023-02-24T02:48:24.256Z,100.00
2023-02-24T02:50:56.121Z,100.00
2023-02-24T02:53:29.880Z,100.00
2023-02-24T02:56:02.021Z,100.00
2023-02-24T02:58:35.116Z,100.00
2023-02-24T03:01:07.218Z,100.00
2023-02-24T03:03:39.344Z,100.00
2023-02-24T03:06:14.589Z,100.00
2023-02-24T03:08:46.715Z,100.00
2023-02-24T03:11:17.486Z,100.00
2023-02-24T03:13:49.448Z,100.00
2023-02-24T03:16:19.088Z,100.00
2023-02-24T03:18:52.123Z,100.00
2023-02-24T03:21:29.553Z,100.00
2023-02-24T03:23:57.319Z,100.00
2023-02-24T03:26:29.252Z,100.00
2023-02-24T03:29:03.581Z,100.00
2023-02-24T03:31:34.654Z,100.00
2023-02-24T03:34:08.304Z,100.00
2023-02-24T03:36:37.414Z,100.00
2023-02-24T03:39:11.190Z,100.00
2023-02-24T03:41:44.803Z,100.00
2023-02-24T03:44:12.895Z,100.00
2023-02-24T03:46:42.482Z,100.00
2023-02-24T03:49:13.891Z,100.00
2023-02-24T03:51:44.738Z,100.00
2023-02-24T03:54:30.500Z,100.00
2023-02-24T03:57:15.662Z,100.00
2023-02-24T03:59:52.753Z,98.54
2023-02-24T04:02:24.619Z,99.44
2023-02-24T04:04:58.998Z,100.00
2023-02-24T04:07:38.770Z,99.84
2023-02-24T04:10:12.553Z,99.84
2023-02-24T04:12:46.934Z,99.88
2023-02-24T04:15:21.599Z,100.00
2023-02-24T04:17:53.285Z,100.00
2023-02-24T04:20:24.738Z,100.00
2023-02-24T04:22:59.451Z,99.85
2023-02-24T04:25:28.585Z,100.00
2023-02-24T04:27:59.460Z,100.00
2023-02-24T04:30:30.721Z,100.00
2023-02-24T04:32:58.749Z,99.26
2023-02-24T04:35:27.791Z,98.54
2023-02-24T04:37:57.418Z,99.79
2023-02-24T04:40:25.044Z,98.42
2023-02-24T04:42:54.555Z,98.52
2023-02-24T04:45:24.497Z,99.50
2023-02-24T04:47:56.136Z,100.00
2023-02-24T04:50:26.523Z,98.29
2023-02-24T04:52:55.829Z,98.66
2023-02-24T04:55:29.379Z,99.74
2023-02-24T04:57:57.874Z,100.00
2023-02-24T05:00:26.767Z,97.41
2023-02-24T05:02:56.605Z,96.64
2023-02-24T05:05:27.552Z,95.17
2023-02-24T05:07:56.474Z,96.96
2023-02-24T05:10:27.769Z,95.86
2023-02-24T05:12:58.053Z,94.42
2023-02-24T05:15:31.006Z,94.91
2023-02-24T05:18:00.347Z,97.04
2023-02-24T05:20:46.155Z,97.48
2023-02-24T05:23:13.884Z,98.65
2023-02-24T05:25:43.292Z,99.40
2023-02-24T05:28:11.138Z,100.00
2023-02-24T05:30:39.382Z,100.00
2023-02-24T05:33:08.274Z,100.00
2023-02-24T05:35:37.769Z,100.00
2023-02-24T05:38:08.107Z,100.00
2023-02-24T05:40:35.871Z,100.00
2023-02-24T05:43:05.413Z,100.00
2023-02-24T05:45:34.440Z,100.00
2023-02-24T05:48:05.733Z,100.00
2023-02-24T05:50:33.319Z,99.30
2023-02-24T05:53:03.239Z,98.60
2023-02-24T05:55:31.864Z,98.19
2023-02-24T05:57:59.508Z,98.56
2023-02-24T06:00:28.545Z,99.08
2023-02-24T06:03:07.533Z,97.69
2023-02-24T06:05:35.599Z,96.27
2023-02-24T06:08:06.195Z,94.27
2023-02-24T06:10:35.077Z,94.19
2023-02-24T06:13:03.087Z,93.67
2023-02-24T06:15:32.401Z,92.97
2023-02-24T06:18:01.834Z,92.42
2023-02-24T06:20:32.802Z,91.59
2023-02-24T06:23:02.026Z,91.88
2023-02-24T06:25:30.981Z,90.10
2023-02-24T06:28:01.705Z,89.57
2023-02-24T06:30:29.374Z,91.17
2023-02-24T06:32:58.503Z,90.83
2023-02-24T06:35:27.099Z,90.89
2023-02-24T06:37:55.811Z,89.92
2023-02-24T06:40:24.331Z,91.50
2023-02-24T06:42:54.771Z,91.49
2023-02-24T06:45:23.037Z,92.10
2023-02-24T06:47:50.793Z,91.42
2023-02-24T06:50:21.632Z,91.17
2023-02-24T06:52:50.214Z,91.11
2023-02-24T06:55:26.068Z,91.86
2023-02-24T06:57:57.056Z,92.28
2023-02-24T07:00:36.831Z,93.13
2023-02-24T07:03:14.737Z,93.73
2023-02-24T07:05:50.289Z,93.72
2023-02-24T07:08:20.947Z,92.99
2023-02-24T07:10:53.660Z,93.50
2023-02-24T07:13:21.617Z,93.29
2023-02-24T07:15:50.056Z,93.02
2023-02-24T07:18:18.678Z,93.08
2023-02-24T07:20:48.062Z,92.56
2023-02-24T07:23:16.774Z,91.91
2023-02-24T07:25:46.280Z,91.27
2023-02-24T07:28:14.044Z,91.48
2023-02-24T07:30:42.727Z,91.40
2023-02-24T07:33:10.532Z,91.51
2023-02-24T07:35:41.469Z,90.85
2023-02-24T07:38:10.587Z,89.34
2023-02-24T07:40:40.877Z,90.39
2023-02-24T07:43:08.472Z,90.67
2023-02-24T07:45:36.172Z,91.03
2023-02-24T07:48:04.488Z,90.55
2023-02-24T07:50:32.788Z,90.22
2023-02-24T07:53:04.898Z,89.83
2023-02-24T07:55:36.869Z,90.83
2023-02-24T07:58:06.706Z,90.79
2023-02-24T08:00:50.302Z,90.58
2023-02-24T08:03:18.073Z,90.72
2023-02-24T08:05:45.887Z,90.84
2023-02-24T08:08:20.854Z,90.35
2023-02-24T08:10:49.787Z,92.08
2023-02-24T08:13:19.044Z,90.96
2023-02-24T08:15:56.431Z,91.61
2023-02-24T08:18:24.117Z,91.81
2023-02-24T08:20:53.013Z,92.06
2023-02-24T08:23:23.340Z,92.50
2023-02-24T08:25:53.670Z,93.40
2023-02-24T08:28:21.856Z,94.47
2023-02-24T08:30:51.092Z,93.45
2023-02-24T08:33:21.121Z,93.91
2023-02-24T08:35:53.098Z,96.00
2023-02-24T08:38:25.940Z,97.20
2023-02-24T08:40:58.569Z,100.00
2023-02-24T08:43:33.502Z,100.00
2023-02-24T08:46:05.749Z,100.00
2023-02-24T08:48:42.144Z,100.00
2023-02-24T08:51:14.979Z,100.00
2023-02-24T08:53:43.376Z,100.00
2023-02-24T08:56:14.726Z,100.00
2023-02-24T08:58:47.170Z,100.00
2023-02-24T09:01:20.527Z,100.00
2023-02-24T09:03:50.448Z,100.00
2023-02-24T09:06:25.289Z,100.00
2023-02-24T09:09:17.010Z,100.00
2023-02-24T09:11:47.173Z,100.00
2023-02-24T09:14:26.478Z,100.00
2023-02-24T09:17:03.205Z,100.00
2023-02-24T09:19:49.361Z,100.00
2023-02-24T09:22:31.346Z,100.00
2023-02-24T09:25:23.781Z,100.00
2023-02-24T09:27:55.778Z,100.00
2023-02-24T09:30:36.657Z,100.00
2023-02-24T09:33:19.106Z,100.00
2023-02-24T09:35:48.608Z,100.00
2023-02-24T09:38:18.780Z,100.00
2023-02-24T09:40:52.005Z,100.00
2023-02-24T09:43:27.819Z,100.00
2023-02-24T09:46:01.647Z,100.00
2023-02-24T09:48:43.694Z,100.00
2023-02-24T09:51:21.547Z,100.00
2023-02-24T09:53:53.475Z,100.00
2023-02-24T09:56:29.533Z,100.00
2023-02-24T09:59:10.317Z,100.00
2023-02-24T10:01:46.021Z,100.00
2023-02-24T10:04:35.803Z,100.00
2023-02-24T10:07:06.424Z,100.00
2023-02-24T10:09:36.718Z,100.00
2023-02-24T10:12:11.611Z,100.00
2023-02-24T10:14:51.111Z,100.00
2023-02-24T10:17:24.718Z,100.00
2023-02-24T10:19:59.986Z,100.00
2023-02-24T10:22:50.594Z,100.00
2023-02-24T10:25:26.083Z,100.00
2023-02-24T10:28:02.650Z,100.00
2023-02-24T10:30:47.179Z,100.00
2023-02-24T10:33:25.258Z,100.00
2023-02-24T10:36:08.978Z,100.00
2023-02-24T10:38:37.815Z,100.00
2023-02-24T10:41:06.988Z,100.00
2023-02-24T10:43:45.327Z,100.00
2023-02-24T10:46:40.229Z,100.00
2023-02-24T10:49:16.143Z,100.00
2023-02-24T10:51:48.920Z,100.00
2023-02-24T10:54:34.510Z,100.00
2023-02-24T10:57:15.540Z,100.00
2023-02-24T11:00:19.416Z,100.00
2023-02-24T11:03:07.011Z,100.00
2023-02-24T11:38:36.993Z,100.00
2023-02-24T11:41:11.532Z,100.00
2023-02-24T11:43:44.378Z,100.00
2023-02-24T11:46:16.992Z,100.00
2023-02-24T11:48:51.831Z,100.00
2023-02-24T11:51:23.898Z,100.00
2023-02-24T11:53:56.395Z,100.00
2023-02-24T11:56:29.416Z,100.00
2023-02-24T11:59:02.805Z,100.00
2023-02-24T12:01:36.609Z,100.00
2023-02-24T12:04:14.388Z,100.00
2023-02-24T12:06:51.968Z,100.00
2023-02-24T12:09:25.827Z,100.00
2023-02-24T12:11:56.814Z,100.00
2023-02-24T12:14:34.636Z,100.00
2023-02-24T12:17:14.008Z,100.00
2023-02-24T12:20:01.570Z,100.00
2023-02-24T12:22:35.117Z,100.00
2023-02-24T12:25:05.026Z,100.00
2023-02-24T12:27:46.469Z,100.00
2023-02-24T12:30:38.280Z,100.00
2023-02-24T12:33:19.622Z,100.00
2023-02-24T12:35:59.835Z,100.00
2023-02-24T12:38:41.145Z,100.00
2023-02-24T12:41:21.760Z,100.00
2023-02-24T12:43:56.328Z,100.00
2023-02-24T12:46:27.249Z,100.00
2023-02-24T12:49:11.967Z,100.00
2023-02-24T12:51:46.806Z,100.00
2023-02-24T12:54:21.058Z,100.00
2023-02-24T12:56:56.807Z,100.00
2023-02-24T12:59:30.740Z,100.00
2023-02-24T13:02:02.277Z,100.00
2023-02-24T13:04:46.282Z,100.00
2023-02-24T13:07:31.432Z,100.00
2023-02-24T13:13:11.684Z,100.00
2023-02-24T13:15:51.233Z,100.00
2023-02-24T13:18:25.412Z,100.00
2023-02-24T13:21:05.482Z,100.00
2023-02-24T13:23:33.707Z,100.00
2023-02-24T13:26:01.510Z,100.00
2023-02-24T13:28:33.215Z,100.00
2023-02-24T13:31:03.357Z,100.00
2023-02-24T13:33:33.839Z,100.00
2023-02-24T13:36:13.906Z,100.00
2023-02-24T13:38:44.083Z,100.00
2023-02-24T13:41:25.044Z,100.00
2023-02-24T13:43:59.839Z,100.00
2023-02-24T13:46:31.990Z,100.00
2023-02-24T13:49:22.938Z,100.00
2023-02-24T13:52:00.102Z,100.00
2023-02-24T13:55:00.021Z,100.00
2023-02-24T13:58:08.595Z,100.00
2023-02-24T14:00:53.932Z,100.00
2023-02-24T14:03:25.183Z,100.00
2023-02-24T14:05:54.197Z,100.00
2023-02-24T14:08:25.820Z,100.00
2023-02-24T14:10:56.953Z,100.00
2023-02-24T14:13:27.750Z,100.00
2023-02-24T14:15:57.706Z,100.00
2023-02-24T14:18:27.561Z,100.00
2023-02-24T14:20:59.453Z,100.00
2023-02-24T14:23:29.323Z,100.00
2023-02-24T14:25:59.850Z,100.00
2023-02-24T14:28:31.109Z,100.00
2023-02-24T14:31:05.849Z,100.00
2023-02-24T14:33:35.634Z,100.00
2023-02-24T14:36:05.897Z,100.00
2023-02-24T14:38:36.996Z,100.00
2023-02-24T14:41:07.563Z,100.00
2023-02-24T14:43:41.773Z,100.00
2023-02-24T14:46:10.857Z,100.00
2023-02-24T14:48:38.832Z,100.00
2023-02-24T14:51:10.574Z,100.00
2023-02-24T14:53:43.400Z,100.00
2023-02-24T14:56:13.569Z,100.00
2023-02-24T14:58:47.064Z,100.00
2023-02-24T15:01:24.017Z,100.00
2023-02-24T15:03:54.688Z,100.00
2023-02-24T15:06:25.785Z,100.00
2023-02-24T15:08:59.127Z,100.00
2023-02-24T15:11:29.900Z,100.00
2023-02-24T15:14:01.238Z,100.00
2023-02-24T15:16:37.768Z,100.00
2023-02-24T15:19:05.988Z,100.00
2023-02-24T15:21:35.735Z,100.00
2023-02-24T15:24:06.216Z,100.00
2023-02-24T15:26:35.593Z,100.00
2023-02-24T15:29:13.179Z,100.00
2023-02-24T15:31:47.770Z,100.00
2023-02-24T15:34:19.801Z,100.00
2023-02-24T15:36:48.185Z,100.00
2023-02-24T15:39:21.516Z,100.00
2023-02-24T15:41:49.709Z,100.00
2023-02-24T15:44:28.901Z,100.00
2023-02-24T15:46:59.507Z,100.00
2023-02-24T15:49:28.409Z,100.00
2023-02-24T15:51:59.494Z,100.00
2023-02-24T15:54:31.472Z,100.00
2023-02-24T15:57:00.558Z,100.00
2023-02-24T15:59:29.481Z,100.00
2023-02-24T16:01:58.517Z,100.00
2023-02-24T16:04:27.627Z,100.00
2023-02-24T16:06:57.939Z,100.00
2023-02-24T16:09:33.437Z,100.00
2023-02-24T16:12:04.249Z,100.00
2023-02-24T16:14:33.347Z,100.00
2023-02-24T16:17:05.655Z,100.00
2023-02-24T16:19:33.785Z,100.00
2023-02-24T16:22:02.161Z,100.00
2023-02-24T16:24:29.884Z,100.00
2023-02-24T16:26:57.657Z,100.00
2023-02-24T16:29:25.321Z,100.00
2023-02-24T16:31:53.365Z,100.00
2023-02-24T16:34:22.559Z,100.00
2023-02-24T16:36:51.476Z,100.00
2023-02-24T16:39:19.397Z,100.00
2023-02-24T16:41:47.294Z,100.00
2023-02-24T16:44:14.965Z,100.00
2023-02-24T16:46:45.533Z,100.00
2023-02-24T16:49:18.861Z,100.00
2023-02-24T16:51:48.154Z,100.00
2023-02-24T16:54:15.829Z,100.00
2023-02-24T16:56:43.426Z,100.00
2023-02-24T16:59:11.055Z,100.00
2023-02-24T17:01:40.791Z,100.00
2023-02-24T17:04:09.819Z,100.00
2023-02-24T17:06:37.545Z,100.00
2023-02-24T17:09:06.812Z,100.00
2023-02-24T17:11:35.617Z,100.00
2023-02-24T17:14:03.561Z,100.00
2023-02-24T17:16:31.369Z,100.00
2023-02-24T17:19:00.207Z,100.00
2023-02-24T17:21:29.206Z,100.00
2023-02-24T17:23:56.857Z,100.00
2023-02-24T17:26:26.050Z,100.00
2023-02-24T17:28:53.700Z,100.00
2023-02-24T17:31:22.018Z,100.00
2023-02-24T17:33:49.740Z,100.00
2023-02-24T17:36:17.315Z,100.00
2023-02-24T17:38:44.947Z,100.00
2023-02-24T17:41:12.595Z,100.00
2023-02-24T17:43:41.582Z,100.00
2023-02-24T17:46:09.235Z,100.00
2023-02-24T17:48:36.853Z,100.00
2023-02-24T17:51:04.711Z,100.00
2023-02-24T17:53:32.369Z,100.00
2023-02-24T17:56:04.608Z,100.00
2023-02-24T17:58:33.585Z,100.00
2023-02-24T18:01:03.136Z,100.00
2023-02-24T18:03:32.484Z,100.00
2023-02-24T18:06:00.800Z,100.00
2023-02-24T18:08:29.607Z,100.00
2023-02-24T18:10:57.475Z,100.00
2023-02-24T18:13:25.104Z,100.00
2023-02-24T18:15:52.885Z,100.00
2023-02-24T18:18:22.001Z,100.00
2023-02-24T18:20:49.604Z,100.00
2023-02-24T18:23:17.449Z,100.00
2023-02-24T18:25:45.476Z,100.00
2023-02-24T18:28:13.177Z,100.00
2023-02-24T18:30:41.061Z,100.00
2023-02-24T18:33:08.926Z,100.00
2023-02-24T18:35:38.905Z,100.00
2023-02-24T18:38:06.633Z,100.00
2023-02-24T18:40:34.412Z,100.00
2023-02-24T18:43:02.111Z,100.00
2023-02-24T18:45:29.806Z,100.00
2023-02-24T18:48:01.709Z,100.00
2023-02-24T18:50:29.374Z,100.00
2023-02-24T18:53:00.604Z,100.00
2023-02-24T18:55:28.341Z,100.00
2023-02-24T18:57:55.929Z,100.00
2023-02-24T19:00:23.926Z,100.00
2023-02-24T19:02:51.689Z,100.00
2023-02-24T19:05:20.427Z,100.00
2023-02-24T19:07:48.063Z,100.00
2023-02-24T19:10:17.904Z,100.00
2023-02-24T19:12:47.000Z,100.00
2023-02-24T19:15:14.961Z,100.00
2023-02-24T19:17:42.697Z,100.00
2023-02-24T19:20:11.663Z,100.00
2023-02-24T19:22:39.306Z,100.00
2023-02-24T19:25:09.443Z,100.00
2023-02-24T19:27:38.984Z,100.00
2023-02-24T19:30:08.024Z,100.00
2023-02-24T19:32:36.550Z,100.00
2023-02-24T19:35:04.546Z,100.00
2023-02-24T19:37:32.908Z,100.00
2023-02-24T19:40:01.088Z,100.00
2023-02-24T19:42:29.375Z,100.00
2023-02-24T19:44:58.612Z,100.00
2023-02-24T19:47:26.186Z,100.00
2023-02-24T19:49:53.909Z,100.00
2023-02-24T19:52:21.606Z,100.00
2023-02-24T19:54:52.898Z,100.00
2023-02-24T19:57:20.903Z,100.00
2023-02-24T19:59:51.778Z,100.00
2023-02-24T20:02:20.829Z,100.00
2023-02-24T20:04:48.592Z,100.00
2023-02-24T20:07:17.662Z,100.00
2023-02-24T20:09:45.884Z,100.00
2023-02-24T20:12:16.156Z,100.00
2023-02-24T20:14:44.432Z,100.00
2023-02-24T20:17:12.404Z,100.00
2023-02-24T20:19:41.463Z,100.00
2023-02-24T20:22:09.093Z,100.00
2023-02-24T20:24:36.820Z,100.00
2023-02-24T20:27:05.477Z,100.00
2023-02-24T20:29:35.086Z,100.00
2023-02-24T20:32:03.504Z,100.00
2023-02-24T20:34:32.455Z,100.00
2023-02-24T20:37:01.952Z,100.00
2023-02-24T20:39:29.630Z,100.00
2023-02-24T20:41:57.290Z,100.00
2023-02-24T20:44:25.175Z,100.00
2023-02-24T20:46:52.880Z,100.00
2023-02-24T20:49:20.642Z,100.00
2023-02-24T20:51:48.350Z,100.00
2023-02-24T20:54:17.643Z,100.00
2023-02-24T20:56:46.629Z,100.00
2023-02-24T20:59:16.136Z,100.00
2023-02-24T21:01:47.340Z,100.00
2023-02-24T21:04:17.452Z,100.00
2023-02-24T21:06:46.622Z,100.00
2023-02-24T21:09:14.692Z,100.00
2023-02-24T21:11:43.704Z,100.00
2023-02-24T21:14:15.552Z,100.00
2023-02-24T21:16:43.526Z,100.00
2023-02-24T21:19:11.566Z,100.00
2023-02-24T21:21:39.456Z,100.00
2023-02-24T21:24:08.251Z,100.00
2023-02-24T21:26:35.923Z,100.00
2023-02-24T21:29:04.885Z,100.00
2023-02-24T21:31:34.439Z,100.00
2023-02-24T21:34:02.117Z,100.00
2023-02-24T21:36:30.654Z,100.00
2023-02-24T21:38:58.580Z,100.00
2023-02-24T21:41:26.326Z,100.00
2023-02-24T21:43:55.615Z,100.00
2023-02-24T21:46:28.542Z,100.00
2023-02-24T21:48:57.256Z,100.00
2023-02-24T21:51:27.073Z,100.00
2023-02-24T21:53:56.110Z,100.00
2023-02-24T21:56:26.302Z,100.00
2023-02-24T21:58:58.126Z,100.00
2023-02-24T22:01:29.481Z,100.00
2023-02-24T22:04:02.170Z,100.00
2023-02-24T22:06:32.071Z,100.00
2023-02-24T22:09:00.923Z,100.00
2023-02-24T22:11:31.221Z,100.00
2023-02-24T22:13:58.933Z,100.00
2023-02-24T22:16:28.981Z,100.00
2023-02-24T22:18:57.094Z,100.00
2023-02-24T22:21:27.083Z,100.00
2023-02-24T22:23:57.465Z,100.00
2023-02-24T22:26:25.603Z,100.00
2023-02-24T22:28:53.919Z,100.00
2023-02-24T22:31:24.544Z,100.00
2023-02-24T22:33:54.049Z,100.00
2023-02-24T22:36:24.581Z,100.00
2023-02-24T22:38:52.688Z,100.00
2023-02-24T22:41:22.579Z,100.00
2023-02-24T22:43:50.538Z,100.00
2023-02-24T22:46:21.326Z,100.00
2023-02-24T22:48:50.257Z,100.00
2023-02-24T22:51:19.881Z,100.00
2023-02-24T22:53:49.808Z,100.00
2023-02-24T22:56:21.879Z,100.00
2023-02-24T22:58:49.975Z,100.00
2023-02-24T23:01:19.660Z,100.00
2023-02-24T23:03:47.390Z,100.00
2023-02-24T23:06:17.069Z,100.00
2023-02-24T23:08:47.983Z,100.00
2023-02-24T23:11:18.572Z,100.00
2023-02-24T23:13:48.209Z,100.00
2023-02-24T23:16:18.303Z,100.00
2023-02-24T23:18:50.579Z,100.00
2023-02-24T23:21:20.078Z,100.00
2023-02-24T23:23:49.662Z,100.00
2023-02-24T23:26:18.518Z,100.00
2023-02-24T23:28:46.165Z,100.00
2023-02-24T23:31:18.965Z,100.00
2023-02-24T23:33:46.847Z,100.00
2023-02-24T23:36:15.005Z,100.00
2023-02-24T23:38:42.579Z,100.00
2023-02-24T23:41:12.758Z,100.00
2023-02-24T23:43:40.506Z,100.00
2023-02-24T23:46:10.591Z,100.00
2023-02-24T23:48:38.367Z,100.00
2023-02-24T23:51:12.285Z,100.00
2023-02-24T23:53:41.131Z,100.00
2023-02-24T23:56:12.297Z,100.00
2023-02-24T23:58:39.875Z,100.00
